Time,TemperatureF,DewpointF,PressureIn,WindDirection,WindDirectionDegrees,WindSpeedMPH,WindSpeedGustMPH,Humidity,HourlyPrecipIn,Conditions,Clouds,dailyrainin,SoftwareType,DateUTC
2013-02-17 00:00:00,35.0,32.6,29.79,WNW,297,10.0,15.0,91,0.00,,---,0.09,VWS V14.01,2013-02-17 05:00:00,
2013-02-17 00:05:00,34.9,32.5,29.79,WNW,303,4.0,12.0,91,0.00,,---,0.09,VWS V14.01,2013-02-17 05:05:00,
2013-02-17 00:10:00,35.0,32.6,29.79,NW,314,4.0,12.0,91,0.00,,---,0.00,VWS V14.01,2013-02-17 05:10:00,
2013-02-17 00:15:00,35.0,32.6,29.79,NW,317,9.0,14.0,91,0.00,,---,0.00,VWS V14.01,2013-02-17 05:15:00,
2013-02-17 00:20:00,35.0,32.6,29.79,WNW,290,6.0,12.0,91,0.00,,---,0.00,VWS V14.01,2013-02-17 05:20:00,
2013-02-17 00:25:00,35.0,32.6,29.79,NNW,337,7.0,9.0,91,0.00,,---,0.00,VWS V14.01,2013-02-17 05:25:00,
2013-02-17 00:30:00,34.9,32.8,29.79,NW,313,10.0,20.0,92,0.00,,---,0.00,VWS V14.01,2013-02-17 05:30:00,
2013-02-17 00:35:00,34.8,32.7,29.79,NW,312,7.0,11.0,92,0.00,,---,0.00,VWS V14.01,2013-02-17 05:35:00,
2013-02-17 00:40:00,34.6,32.2,29.79,NNW,329,9.0,15.0,91,0.00,,---,0.00,VWS V14.01,2013-02-17 05:40:00,
2013-02-17 00:45:00,34.6,32.5,29.79,NNW,335,4.0,15.0,92,0.00,,---,0.00,VWS V14.01,2013-02-17 05:45:00,
2013-02-17 00:50:00,34.6,32.5,29.80,NW,319,6.0,11.0,92,0.01,,---,0.01,VWS V14.01,2013-02-17 05:50:00,
2013-02-17 00:55:00,34.5,32.4,29.80,NNW,336,5.0,12.0,92,0.01,,---,0.01,VWS V14.01,2013-02-17 05:55:00,
2013-02-17 01:00:00,34.3,32.2,29.80,NNW,327,5.0,14.0,92,0.01,,---,0.01,VWS V14.01,2013-02-17 06:00:00,
2013-02-17 01:05:00,34.2,32.1,29.80,NW,316,9.0,15.0,92,0.01,,---,0.01,VWS V14.01,2013-02-17 06:05:00,
2013-02-17 01:10:00,34.2,32.1,29.80,NNW,338,6.0,12.0,92,0.01,,---,0.01,VWS V14.01,2013-02-17 06:10:00,
2013-02-17 01:15:00,34.2,32.1,29.80,NNW,336,13.0,13.0,92,0.01,,---,0.01,VWS V14.01,2013-02-17 06:15:00,
2013-02-17 01:20:00,33.9,31.8,29.80,NNW,334,6.0,13.0,92,0.01,,---,0.01,VWS V14.01,2013-02-17 06:20:00,
2013-02-17 01:25:00,33.8,31.7,29.80,NW,304,5.0,14.0,92,0.01,,---,0.01,VWS V14.01,2013-02-17 06:25:00,
2013-02-17 01:30:00,33.7,31.6,29.80,WNW,293,7.0,14.0,92,0.01,,---,0.01,VWS V14.01,2013-02-17 06:30:00,
2013-02-17 01:35:00,33.7,31.9,29.81,NW,305,4.0,12.0,93,0.01,,---,0.01,VWS V14.01,2013-02-17 06:35:00,
2013-02-17 01:40:00,33.6,31.8,29.81,NW,312,10.0,12.0,93,0.01,,---,0.01,VWS V14.01,2013-02-17 06:40:00,
2013-02-17 01:45:00,33.6,31.8,29.81,NW,306,5.0,11.0,93,0.01,,---,0.01,VWS V14.01,2013-02-17 06:45:00,
2013-02-17 01:50:00,33.6,31.8,29.81,NW,305,5.0,13.0,93,0.01,,---,0.01,VWS V14.01,2013-02-17 06:50:00,
2013-02-17 01:55:00,33.6,31.8,29.81,NW,318,6.0,13.0,93,0.00,,---,0.01,VWS V14.01,2013-02-17 06:55:00,
2013-02-17 02:00:00,33.7,31.9,29.81,NW,315,5.0,11.0,93,0.00,,---,0.01,VWS V14.01,2013-02-17 07:00:00,
2013-02-17 02:05:00,33.8,32.0,29.81,NW,320,10.0,17.0,93,0.00,,---,0.01,VWS V14.01,2013-02-17 07:05:00,
2013-02-17 02:10:00,33.9,32.1,29.81,NNW,329,7.0,12.0,93,0.00,,---,0.01,VWS V14.01,2013-02-17 07:10:00,
2013-02-17 02:15:00,33.5,31.7,29.81,WNW,301,2.0,13.0,93,0.00,,---,0.01,VWS V14.01,2013-02-17 07:15:00,
2013-02-17 02:20:00,33.7,31.9,29.82,NNW,344,17.0,17.0,93,0.01,,---,0.02,VWS V14.01,2013-02-17 07:20:00,
2013-02-17 02:25:00,33.5,31.7,29.82,NW,320,6.0,15.0,93,0.01,,---,0.02,VWS V14.01,2013-02-17 07:25:00,
2013-02-17 02:30:00,33.3,31.5,29.82,NNW,340,15.0,18.0,93,0.01,,---,0.02,VWS V14.01,2013-02-17 07:30:00,
2013-02-17 02:35:00,33.4,31.3,29.82,NNW,341,6.0,15.0,92,0.01,,---,0.02,VWS V14.01,2013-02-17 07:35:00,
2013-02-17 02:40:00,33.5,31.4,29.82,NW,316,6.0,14.0,92,0.01,,---,0.02,VWS V14.01,2013-02-17 07:40:00,
2013-02-17 02:45:00,33.3,31.0,29.82,NW,324,7.0,12.0,91,0.01,,---,0.02,VWS V14.01,2013-02-17 07:45:00,
2013-02-17 02:50:00,33.4,31.1,29.83,NW,315,4.0,13.0,91,0.01,,---,0.02,VWS V14.01,2013-02-17 07:50:00,
2013-02-17 02:55:00,33.5,30.9,29.83,NW,321,4.0,13.0,90,0.01,,---,0.02,VWS V14.01,2013-02-17 07:55:00,
2013-02-17 03:00:00,33.4,30.8,29.83,NNW,343,8.0,18.0,90,0.01,,---,0.02,VWS V14.01,2013-02-17 08:00:00,
2013-02-17 03:05:00,33.7,30.8,29.83,NW,317,10.0,14.0,89,0.01,,---,0.02,VWS V14.01,2013-02-17 08:05:00,
2013-02-17 03:10:00,33.7,30.5,29.83,NW,322,6.0,18.0,88,0.01,,---,0.02,VWS V14.01,2013-02-17 08:10:00,
2013-02-17 03:15:00,33.9,30.7,29.83,NW,316,7.0,12.0,88,0.01,,---,0.02,VWS V14.01,2013-02-17 08:15:00,
2013-02-17 03:20:00,33.9,30.7,29.84,NW,315,9.0,11.0,88,0.01,,---,0.02,VWS V14.01,2013-02-17 08:20:00,
2013-02-17 03:25:00,33.5,30.3,29.84,NNW,331,11.0,17.0,88,0.00,,---,0.02,VWS V14.01,2013-02-17 08:25:00,
2013-02-17 03:30:00,33.5,30.6,29.84,NW,309,4.0,12.0,89,0.00,,---,0.02,VWS V14.01,2013-02-17 08:30:00,
2013-02-17 03:35:00,33.4,30.5,29.84,NNW,334,5.0,14.0,89,0.00,,---,0.02,VWS V14.01,2013-02-17 08:35:00,
2013-02-17 03:40:00,33.3,30.7,29.84,NNW,336,5.0,14.0,90,0.00,,---,0.02,VWS V14.01,2013-02-17 08:40:00,
2013-02-17 03:45:00,33.3,30.7,29.84,NW,309,6.0,11.0,90,0.00,,---,0.02,VWS V14.01,2013-02-17 08:45:00,
2013-02-17 03:50:00,33.2,30.6,29.85,WNW,292,7.0,13.0,90,0.00,,---,0.02,VWS V14.01,2013-02-17 08:50:00,
2013-02-17 03:55:00,33.1,30.5,29.85,WNW,300,9.0,15.0,90,0.00,,---,0.02,VWS V14.01,2013-02-17 08:55:00,
2013-02-17 04:00:00,33.1,30.5,29.85,NW,311,7.0,14.0,90,0.00,,---,0.02,VWS V14.01,2013-02-17 09:00:00,
2013-02-17 04:05:00,33.2,30.6,29.85,WNW,302,13.0,13.0,90,0.00,,---,0.02,VWS V14.01,2013-02-17 09:05:00,
2013-02-17 04:10:00,33.1,30.5,29.85,NW,313,3.0,14.0,90,0.00,,---,0.02,VWS V14.01,2013-02-17 09:10:00,
2013-02-17 04:15:00,33.1,30.5,29.85,NW,310,6.0,15.0,90,0.00,,---,0.02,VWS V14.01,2013-02-17 09:15:00,
2013-02-17 04:20:00,33.1,30.5,29.86,WNW,301,3.0,15.0,90,0.00,,---,0.02,VWS V14.01,2013-02-17 09:20:00,
2013-02-17 04:25:00,33.0,30.4,29.86,NW,321,7.0,20.0,90,0.00,,---,0.02,VWS V14.01,2013-02-17 09:25:00,
2013-02-17 04:30:00,33.0,30.4,29.86,NW,306,9.0,16.0,90,0.00,,---,0.02,VWS V14.01,2013-02-17 09:30:00,
2013-02-17 04:35:00,33.1,30.2,29.87,NW,324,11.0,17.0,89,0.00,,---,0.02,VWS V14.01,2013-02-17 09:35:00,
2013-02-17 04:40:00,33.1,30.2,29.87,NW,314,6.0,17.0,89,0.00,,---,0.02,VWS V14.01,2013-02-17 09:40:00,
2013-02-17 04:45:00,32.9,30.0,29.87,WNW,302,9.0,19.0,89,0.00,,---,0.02,VWS V14.01,2013-02-17 09:45:00,
2013-02-17 04:50:00,32.9,30.0,29.88,NW,326,9.0,16.0,89,0.00,,---,0.02,VWS V14.01,2013-02-17 09:50:00,
2013-02-17 04:55:00,32.9,30.0,29.88,WNW,295,13.0,16.0,89,0.00,,---,0.02,VWS V14.01,2013-02-17 09:55:00,
2013-02-17 05:00:00,32.9,30.0,29.88,NNW,331,7.0,14.0,89,0.00,,---,0.02,VWS V14.01,2013-02-17 10:00:00,
2013-02-17 05:05:00,32.8,29.9,29.88,NW,315,5.0,16.0,89,0.00,,---,0.02,VWS V14.01,2013-02-17 10:05:00,
2013-02-17 05:10:00,32.8,29.9,29.88,WNW,285,6.0,14.0,89,0.00,,---,0.02,VWS V14.01,2013-02-17 10:10:00,
2013-02-17 05:15:00,32.8,29.6,29.88,WNW,302,3.0,16.0,88,0.00,,---,0.02,VWS V14.01,2013-02-17 10:15:00,
2013-02-17 05:20:00,32.8,29.6,29.89,WNW,298,9.0,14.0,88,0.00,,---,0.02,VWS V14.01,2013-02-17 10:20:00,
2013-02-17 05:25:00,32.7,29.5,29.89,NW,315,8.0,24.0,88,0.00,,---,0.02,VWS V14.01,2013-02-17 10:25:00,
2013-02-17 05:30:00,32.6,29.5,29.89,NW,310,5.0,19.0,88,0.00,,---,0.02,VWS V14.01,2013-02-17 10:30:00,
2013-02-17 05:35:00,32.4,29.0,29.90,NW,308,9.0,20.0,87,0.00,,---,0.02,VWS V14.01,2013-02-17 10:35:00,
2013-02-17 05:40:00,32.2,28.5,29.90,WNW,299,9.0,21.0,86,0.00,,---,0.02,VWS V14.01,2013-02-17 10:40:00,
2013-02-17 05:45:00,32.3,28.6,29.90,NW,307,5.0,18.0,86,0.00,,---,0.02,VWS V14.01,2013-02-17 10:45:00,
2013-02-17 05:50:00,32.2,28.5,29.92,NW,314,4.0,14.0,86,0.00,,---,0.02,VWS V14.01,2013-02-17 10:50:00,
2013-02-17 05:55:00,32.0,28.0,29.92,NW,310,13.0,19.0,85,0.00,,---,0.02,VWS V14.01,2013-02-17 10:55:00,
2013-02-17 05:59:00,32.1,28.1,29.92,WNW,298,6.0,18.0,85,0.00,,---,0.02,VWS V14.01,2013-02-17 10:59:00,
2013-02-17 06:05:00,32.2,27.9,29.92,NW,311,7.0,19.0,84,0.00,,---,0.02,VWS V14.01,2013-02-17 11:05:00,
2013-02-17 06:09:00,32.1,27.8,29.92,WNW,296,5.0,17.0,84,0.00,,---,0.02,VWS V14.01,2013-02-17 11:09:00,
2013-02-17 06:14:00,32.0,27.7,29.92,WNW,301,7.0,22.0,84,0.00,,---,0.02,VWS V14.01,2013-02-17 11:14:00,
2013-02-17 06:19:00,31.9,27.6,29.92,NW,318,7.0,16.0,84,0.00,,---,0.02,VWS V14.01,2013-02-17 11:19:00,
2013-02-17 06:24:00,31.9,27.6,29.92,WNW,292,10.0,14.0,84,0.00,,---,0.02,VWS V14.01,2013-02-17 11:24:00,
2013-02-17 06:29:00,32.0,27.4,29.92,WNW,300,4.0,16.0,83,0.00,,---,0.02,VWS V14.01,2013-02-17 11:29:00,
2013-02-17 06:34:00,32.0,27.4,29.93,NNW,332,6.0,14.0,83,0.00,,---,0.02,VWS V14.01,2013-02-17 11:34:00,
2013-02-17 06:39:00,32.0,27.4,29.93,WNW,297,4.0,16.0,83,0.00,,---,0.02,VWS V14.01,2013-02-17 11:39:00,
2013-02-17 06:44:00,31.9,27.0,29.93,WNW,296,7.0,17.0,82,0.00,,---,0.02,VWS V14.01,2013-02-17 11:44:00,
2013-02-17 06:49:00,31.9,27.0,29.93,WNW,290,5.0,16.0,82,0.00,,---,0.02,VWS V14.01,2013-02-17 11:49:00,
2013-02-17 06:54:00,31.8,26.9,29.93,WNW,289,10.0,19.0,82,0.00,,---,0.02,VWS V14.01,2013-02-17 11:54:00,
2013-02-17 06:59:00,31.6,26.5,29.93,NW,325,12.0,20.0,81,0.00,,---,0.02,VWS V14.01,2013-02-17 11:59:00,
2013-02-17 07:04:00,31.6,26.8,29.94,NW,309,11.0,22.0,82,0.00,,---,0.02,VWS V14.01,2013-02-17 12:04:00,
2013-02-17 07:09:00,31.5,26.6,29.94,WNW,289,14.0,15.0,82,0.00,,---,0.02,VWS V14.01,2013-02-17 12:09:00,
2013-02-17 07:14:00,31.5,26.9,29.94,NW,311,8.0,12.0,83,0.00,,---,0.02,VWS V14.01,2013-02-17 12:14:00,
2013-02-17 07:19:00,31.4,26.8,29.95,WNW,292,10.0,16.0,83,0.00,,---,0.02,VWS V14.01,2013-02-17 12:19:00,
2013-02-17 07:24:00,31.4,26.8,29.95,WNW,300,15.0,16.0,83,0.00,,---,0.02,VWS V14.01,2013-02-17 12:24:00,
2013-02-17 07:29:00,31.4,26.8,29.95,WNW,292,13.0,18.0,83,0.00,,---,0.02,VWS V14.01,2013-02-17 12:29:00,
2013-02-17 07:34:00,31.3,26.5,29.95,WNW,296,15.0,19.0,82,0.00,,---,0.02,VWS V14.01,2013-02-17 12:34:00,
2013-02-17 07:39:00,31.3,26.5,29.95,WNW,290,12.0,21.0,82,0.00,,---,0.02,VWS V14.01,2013-02-17 12:39:00,
2013-02-17 07:44:00,31.3,26.5,29.95,WNW,289,13.0,17.0,82,0.00,,---,0.02,VWS V14.01,2013-02-17 12:44:00,
2013-02-17 07:49:00,31.3,26.2,29.96,WNW,286,18.0,18.0,81,0.00,,---,0.02,VWS V14.01,2013-02-17 12:49:00,
2013-02-17 07:54:00,31.4,26.5,29.96,WNW,302,9.0,18.0,82,0.00,,---,0.02,VWS V14.01,2013-02-17 12:54:00,
2013-02-17 07:59:00,31.4,26.2,29.96,NW,304,12.0,19.0,81,0.00,,---,0.02,VWS V14.01,2013-02-17 12:59:00,
2013-02-17 08:04:00,31.5,26.0,29.97,WNW,288,18.0,23.0,80,0.00,,---,0.02,VWS V14.01,2013-02-17 13:04:00,
2013-02-17 08:09:00,31.6,26.1,29.97,WNW,294,15.0,20.0,80,0.00,,---,0.02,VWS V14.01,2013-02-17 13:09:00,
2013-02-17 08:14:00,31.7,26.2,29.97,WNW,295,5.0,19.0,80,0.00,,---,0.02,VWS V14.01,2013-02-17 13:14:00,
2013-02-17 08:19:00,31.8,26.0,29.98,NW,308,6.0,18.0,79,0.00,,---,0.02,VWS V14.01,2013-02-17 13:19:00,
2013-02-17 08:24:00,31.9,25.8,29.98,WNW,300,8.0,20.0,78,0.00,,---,0.02,VWS V14.01,2013-02-17 13:24:00,
2013-02-17 08:29:00,32.0,25.6,29.98,NW,315,10.0,20.0,77,0.00,,---,0.02,VWS V14.01,2013-02-17 13:29:00,
2013-02-17 08:34:00,32.1,25.4,29.98,WNW,293,19.0,22.0,76,0.00,,---,0.02,VWS V14.01,2013-02-17 13:34:00,
2013-02-17 08:39:00,32.3,25.3,29.98,NW,316,15.0,20.0,75,0.00,,---,0.02,VWS V14.01,2013-02-17 13:39:00,
2013-02-17 08:44:00,32.3,25.6,29.98,NNW,333,11.0,17.0,76,0.00,,---,0.02,VWS V14.01,2013-02-17 13:44:00,
2013-02-17 08:49:00,32.4,25.7,29.98,WNW,298,13.0,23.0,76,0.00,,---,0.02,VWS V14.01,2013-02-17 13:49:00,
2013-02-17 08:54:00,32.2,25.5,29.99,NW,305,15.0,26.0,76,0.00,,---,0.02,VWS V14.01,2013-02-17 13:54:00,
2013-02-17 08:59:00,32.5,25.8,29.99,NNW,330,17.0,22.0,76,0.00,,---,0.02,VWS V14.01,2013-02-17 13:59:00,
2013-02-17 09:04:00,32.4,25.4,29.99,WNW,303,20.0,27.0,75,0.00,,---,0.02,VWS V14.01,2013-02-17 14:04:00,
2013-02-17 09:09:00,32.6,25.2,29.99,NW,311,13.0,24.0,74,0.00,,---,0.02,VWS V14.01,2013-02-17 14:09:00,
2013-02-17 09:14:00,32.8,25.4,29.99,WNW,292,13.0,22.0,74,0.00,,---,0.02,VWS V14.01,2013-02-17 14:14:00,
2013-02-17 09:19:00,32.8,24.8,29.99,WNW,288,12.0,22.0,72,0.00,,---,0.02,VWS V14.01,2013-02-17 14:19:00,
2013-02-17 09:24:00,33.0,24.6,30.00,NNW,333,10.0,19.0,71,0.00,,---,0.02,VWS V14.01,2013-02-17 14:24:00,
2013-02-17 09:29:00,33.3,25.3,30.00,WNW,293,6.0,17.0,72,0.00,,---,0.02,VWS V14.01,2013-02-17 14:29:00,
2013-02-17 09:34:00,33.3,24.2,30.00,NW,323,13.0,24.0,69,0.00,,---,0.02,VWS V14.01,2013-02-17 14:34:00,
2013-02-17 09:39:00,33.2,23.8,30.00,WNW,286,16.0,22.0,68,0.00,,---,0.02,VWS V14.01,2013-02-17 14:39:00,
2013-02-17 09:44:00,33.3,23.5,30.00,NNW,329,11.0,21.0,67,0.00,,---,0.02,VWS V14.01,2013-02-17 14:44:00,
2013-02-17 09:49:00,33.4,22.9,30.00,WNW,300,11.0,26.0,65,0.00,,---,0.02,VWS V14.01,2013-02-17 14:49:00,
2013-02-17 09:54:00,33.6,23.1,30.01,NNW,339,10.0,23.0,65,0.00,,---,0.02,VWS V14.01,2013-02-17 14:54:00,
2013-02-17 09:59:00,33.5,22.3,30.01,NW,305,15.0,22.0,63,0.00,,---,0.02,VWS V14.01,2013-02-17 14:59:00,
2013-02-17 10:04:00,33.2,21.2,30.01,NW,309,6.0,19.0,61,0.00,,---,0.02,VWS V14.01,2013-02-17 15:04:00,
2013-02-17 10:09:00,33.5,21.1,30.01,NW,321,6.0,28.0,60,0.00,,---,0.02,VWS V14.01,2013-02-17 15:09:00,
2013-02-17 10:14:00,33.6,20.4,30.01,NW,306,15.0,31.0,58,0.00,,---,0.02,VWS V14.01,2013-02-17 15:14:00,
2013-02-17 10:19:00,33.4,19.8,30.01,WNW,301,9.0,27.0,57,0.00,,---,0.02,VWS V14.01,2013-02-17 15:19:00,
2013-02-17 10:24:00,33.7,19.3,30.02,WNW,298,11.0,26.0,55,0.00,,---,0.02,VWS V14.01,2013-02-17 15:24:00,
2013-02-17 10:29:00,33.7,18.8,30.02,NW,309,9.0,22.0,54,0.00,,---,0.02,VWS V14.01,2013-02-17 15:29:00,
2013-02-17 10:34:00,34.3,19.8,30.02,WNW,296,12.0,21.0,55,0.00,,---,0.02,VWS V14.01,2013-02-17 15:34:00,
2013-02-17 10:39:00,34.7,20.2,30.02,WNW,287,14.0,21.0,55,0.00,,---,0.02,VWS V14.01,2013-02-17 15:39:00,
2013-02-17 10:44:00,34.2,17.5,30.02,NW,307,17.0,24.0,50,0.00,,---,0.02,VWS V14.01,2013-02-17 15:44:00,
2013-02-17 10:49:00,33.9,16.8,30.02,NW,311,19.0,25.0,49,0.00,,---,0.02,VWS V14.01,2013-02-17 15:49:00,
2013-02-17 10:54:00,33.8,16.7,30.02,NW,309,16.0,25.0,49,0.00,,---,0.02,VWS V14.01,2013-02-17 15:54:00,
2013-02-17 10:59:00,34.1,16.5,30.02,West,277,22.0,28.0,48,0.00,,---,0.02,VWS V14.01,2013-02-17 15:59:00,
2013-02-17 11:04:00,34.3,16.7,30.02,NW,304,20.0,27.0,48,0.00,,---,0.02,VWS V14.01,2013-02-17 16:04:00,
2013-02-17 11:09:00,34.3,16.2,30.03,WNW,285,19.0,29.0,47,0.00,,---,0.02,VWS V14.01,2013-02-17 16:09:00,
2013-02-17 11:14:00,34.3,17.1,30.03,WNW,296,12.0,24.0,49,0.00,,---,0.02,VWS V14.01,2013-02-17 16:14:00,
2013-02-17 11:19:00,34.4,16.8,30.03,WNW,292,16.0,25.0,48,0.00,,---,0.02,VWS V14.01,2013-02-17 16:19:00,
2013-02-17 11:24:00,35.1,18.4,30.02,WNW,293,19.0,22.0,50,0.00,,---,0.02,VWS V14.01,2013-02-17 16:24:00,
2013-02-17 11:29:00,34.4,17.2,30.02,WNW,282,20.0,28.0,49,0.00,,---,0.02,VWS V14.01,2013-02-17 16:29:00,
2013-02-17 11:34:00,34.4,17.2,30.02,WNW,299,12.0,22.0,49,0.00,,---,0.02,VWS V14.01,2013-02-17 16:34:00,
2013-02-17 11:39:00,34.2,17.5,30.02,NW,305,5.0,26.0,50,0.00,,---,0.02,VWS V14.01,2013-02-17 16:39:00,
2013-02-17 11:44:00,33.8,17.6,30.02,NW,315,19.0,27.0,51,0.00,,---,0.02,VWS V14.01,2013-02-17 16:44:00,
2013-02-17 11:49:00,33.8,16.7,30.02,WNW,293,12.0,21.0,49,0.00,,---,0.02,VWS V14.01,2013-02-17 16:49:00,
2013-02-17 11:54:00,34.2,16.6,30.02,WNW,284,7.0,23.0,48,0.00,,---,0.02,VWS V14.01,2013-02-17 16:54:00,
2013-02-17 11:59:00,34.3,17.1,30.02,WNW,284,25.0,27.0,49,0.00,,---,0.02,VWS V14.01,2013-02-17 16:59:00,
2013-02-17 12:04:00,34.8,16.1,30.02,West,274,15.0,25.0,46,0.00,,---,0.02,VWS V14.01,2013-02-17 17:04:00,
2013-02-17 12:09:00,34.5,15.9,30.02,NW,309,10.0,23.0,46,0.00,,---,0.02,VWS V14.01,2013-02-17 17:09:00,
2013-02-17 12:14:00,34.7,16.0,30.02,West,271,21.0,25.0,46,0.00,,---,0.02,VWS V14.01,2013-02-17 17:14:00,
2013-02-17 12:19:00,35.0,16.3,30.02,West,281,17.0,27.0,46,0.00,,---,0.02,VWS V14.01,2013-02-17 17:19:00,
2013-02-17 12:24:00,35.2,15.5,30.02,WNW,294,21.0,29.0,44,0.00,,---,0.02,VWS V14.01,2013-02-17 17:24:00,
2013-02-17 12:29:00,34.9,15.7,30.02,NW,304,9.0,26.0,45,0.00,,---,0.02,VWS V14.01,2013-02-17 17:29:00,
2013-02-17 12:34:00,35.3,16.6,30.02,WNW,288,12.0,24.0,46,0.00,,---,0.02,VWS V14.01,2013-02-17 17:34:00,
2013-02-17 12:39:00,35.1,15.9,30.02,West,272,21.0,23.0,45,0.00,,---,0.02,VWS V14.01,2013-02-17 17:39:00,
2013-02-17 12:44:00,34.9,15.7,30.02,WNW,292,21.0,23.0,45,0.00,,---,0.02,VWS V14.01,2013-02-17 17:44:00,
2013-02-17 12:49:00,34.5,16.4,30.02,WNW,294,19.0,26.0,47,0.00,,---,0.02,VWS V14.01,2013-02-17 17:49:00,
2013-02-17 12:54:00,35.3,18.5,30.02,WNW,290,12.0,28.0,50,0.00,,---,0.02,VWS V14.01,2013-02-17 17:54:00,
2013-02-17 12:59:00,34.7,17.0,30.02,West,281,17.0,24.0,48,0.00,,---,0.02,VWS V14.01,2013-02-17 17:59:00,
2013-02-17 13:04:00,34.6,16.5,30.02,WNW,288,24.0,25.0,47,0.00,,---,0.02,VWS V14.01,2013-02-17 18:04:00,
2013-02-17 13:09:00,34.8,16.6,30.01,WNW,292,22.0,28.0,47,0.00,,---,0.02,VWS V14.01,2013-02-17 18:09:00,
2013-02-17 13:14:00,35.2,15.5,30.01,WNW,298,19.0,22.0,44,0.00,,---,0.02,VWS V14.01,2013-02-17 18:14:00,
2013-02-17 13:19:00,36.1,16.8,30.01,WNW,300,11.0,18.0,45,0.00,,---,0.02,VWS V14.01,2013-02-17 18:19:00,
2013-02-17 13:24:00,35.9,16.6,30.01,NW,304,16.0,34.0,45,0.00,,---,0.02,VWS V14.01,2013-02-17 18:24:00,
2013-02-17 13:29:00,35.2,15.5,30.01,WNW,288,17.0,24.0,44,0.00,,---,0.02,VWS V14.01,2013-02-17 18:29:00,
2013-02-17 13:34:00,35.2,15.0,30.01,WNW,290,16.0,24.0,43,0.00,,---,0.02,VWS V14.01,2013-02-17 18:34:00,
2013-02-17 13:39:00,35.5,15.2,30.01,WNW,282,28.0,28.0,43,0.00,,---,0.02,VWS V14.01,2013-02-17 18:39:00,
2013-02-17 13:44:00,35.1,14.3,30.01,West,268,15.0,27.0,42,0.00,,---,0.02,VWS V14.01,2013-02-17 18:44:00,
2013-02-17 13:49:00,35.5,14.1,30.01,WNW,294,14.0,27.0,41,0.00,,---,0.02,VWS V14.01,2013-02-17 18:49:00,
2013-02-17 13:54:00,36.1,16.3,30.01,WNW,291,16.0,23.0,44,0.00,,---,0.02,VWS V14.01,2013-02-17 18:54:00,
2013-02-17 13:59:00,36.3,16.5,30.01,WNW,295,9.0,23.0,44,0.00,,---,0.02,VWS V14.01,2013-02-17 18:59:00,
2013-02-17 14:04:00,36.0,14.0,30.01,NW,325,15.0,28.0,40,0.00,,---,0.02,VWS V14.01,2013-02-17 19:04:00,
2013-02-17 14:09:00,35.8,12.7,30.01,WNW,282,16.0,26.0,38,0.00,,---,0.02,VWS V14.01,2013-02-17 19:09:00,
2013-02-17 14:14:00,35.9,13.4,30.01,NW,325,5.0,20.0,39,0.00,,---,0.02,VWS V14.01,2013-02-17 19:14:00,
2013-02-17 14:19:00,35.9,11.6,30.01,NW,325,13.0,27.0,36,0.00,,---,0.02,VWS V14.01,2013-02-17 19:19:00,
2013-02-17 14:24:00,36.0,12.9,30.02,NW,319,14.0,27.0,38,0.00,,---,0.02,VWS V14.01,2013-02-17 19:24:00,
2013-02-17 14:29:00,36.1,13.0,30.02,NW,306,9.0,27.0,38,0.00,,---,0.02,VWS V14.01,2013-02-17 19:29:00,
2013-02-17 14:34:00,36.0,12.9,30.02,WNW,301,13.0,25.0,38,0.00,,---,0.02,VWS V14.01,2013-02-17 19:34:00,
2013-02-17 14:39:00,36.5,14.5,30.02,WNW,296,23.0,25.0,40,0.00,,---,0.02,VWS V14.01,2013-02-17 19:39:00,
2013-02-17 14:44:00,36.2,13.6,30.02,WNW,293,18.0,25.0,39,0.00,,---,0.02,VWS V14.01,2013-02-17 19:44:00,
2013-02-17 14:49:00,36.9,14.9,30.02,WNW,289,12.0,22.0,40,0.00,,---,0.02,VWS V14.01,2013-02-17 19:49:00,
2013-02-17 14:54:00,36.7,14.1,30.02,NW,305,6.0,23.0,39,0.00,,---,0.02,VWS V14.01,2013-02-17 19:54:00,
2013-02-17 14:59:00,36.7,14.1,30.02,WNW,299,12.0,22.0,39,0.00,,---,0.02,VWS V14.01,2013-02-17 19:59:00,
2013-02-17 15:04:00,36.9,14.3,30.02,WNW,300,25.0,28.0,39,0.00,,---,0.02,VWS V14.01,2013-02-17 20:04:00,
2013-02-17 15:09:00,36.5,12.7,30.02,WNW,288,12.0,30.0,37,0.00,,---,0.02,VWS V14.01,2013-02-17 20:09:00,
2013-02-17 15:14:00,36.8,13.0,30.02,West,273,19.0,29.0,37,0.00,,---,0.02,VWS V14.01,2013-02-17 20:14:00,
2013-02-17 15:19:00,36.4,12.6,30.02,NNW,336,18.0,27.0,37,0.00,,---,0.02,VWS V14.01,2013-02-17 20:19:00,
2013-02-17 15:24:00,36.4,12.0,30.03,West,279,19.0,28.0,36,0.00,,---,0.02,VWS V14.01,2013-02-17 20:24:00,
2013-02-17 15:29:00,36.9,13.7,30.03,West,274,10.0,22.0,38,0.00,,---,0.02,VWS V14.01,2013-02-17 20:29:00,
2013-02-17 15:34:00,37.2,13.9,30.03,WNW,286,7.0,21.0,38,0.00,,---,0.02,VWS V14.01,2013-02-17 20:34:00,
2013-02-17 15:39:00,36.7,12.3,30.04,NW,319,11.0,24.0,36,0.00,,---,0.02,VWS V14.01,2013-02-17 20:39:00,
2013-02-17 15:44:00,36.6,12.2,30.04,NW,308,15.0,25.0,36,0.00,,---,0.02,VWS V14.01,2013-02-17 20:44:00,
2013-02-17 15:49:00,36.7,11.6,30.04,WNW,294,18.0,27.0,35,0.00,,---,0.02,VWS V14.01,2013-02-17 20:49:00,
2013-02-17 15:54:00,36.7,12.3,30.04,NW,310,10.0,21.0,36,0.00,,---,0.02,VWS V14.01,2013-02-17 20:54:00,
2013-02-17 15:59:00,36.8,12.4,30.04,West,280,18.0,25.0,36,0.00,,---,0.02,VWS V14.01,2013-02-17 20:59:00,
2013-02-17 16:04:00,37.3,14.0,30.04,West,279,12.0,23.0,38,0.00,,---,0.02,VWS V14.01,2013-02-17 21:04:00,
2013-02-17 16:09:00,37.0,11.9,30.05,NNW,338,18.0,23.0,35,0.00,,---,0.02,VWS V14.01,2013-02-17 21:09:00,
2013-02-17 16:14:00,36.8,11.7,30.05,WNW,295,13.0,25.0,35,0.00,,---,0.02,VWS V14.01,2013-02-17 21:14:00,
2013-02-17 16:19:00,36.8,11.7,30.05,WNW,291,11.0,24.0,35,0.00,,---,0.02,VWS V14.01,2013-02-17 21:19:00,
2013-02-17 16:24:00,37.3,13.4,30.06,WNW,298,19.0,19.0,37,0.00,,---,0.02,VWS V14.01,2013-02-17 21:24:00,
2013-02-17 16:29:00,37.1,12.6,30.06,NW,314,6.0,18.0,36,0.00,,---,0.02,VWS V14.01,2013-02-17 21:29:00,
2013-02-17 16:34:00,37.0,11.9,30.06,NW,304,10.0,20.0,35,0.00,,---,0.02,VWS V14.01,2013-02-17 21:34:00,
2013-02-17 16:39:00,36.8,11.1,30.06,West,271,25.0,26.0,34,0.00,,---,0.02,VWS V14.01,2013-02-17 21:39:00,
2013-02-17 16:44:00,37.0,12.5,30.06,West,280,18.0,21.0,36,0.00,,---,0.02,VWS V14.01,2013-02-17 21:44:00,
2013-02-17 16:49:00,37.0,11.9,30.06,NW,304,17.0,26.0,35,0.00,,---,0.02,VWS V14.01,2013-02-17 21:49:00,
2013-02-17 16:54:00,36.8,11.7,30.07,WNW,288,16.0,21.0,35,0.00,,---,0.02,VWS V14.01,2013-02-17 21:54:00,
2013-02-17 16:59:00,36.9,11.8,30.07,NW,306,15.0,17.0,35,0.00,,---,0.02,VWS V14.01,2013-02-17 21:59:00,
2013-02-17 17:04:00,37.0,11.9,30.07,WNW,282,20.0,23.0,35,0.00,,---,0.02,VWS V14.01,2013-02-17 22:04:00,
2013-02-17 17:09:00,36.7,12.3,30.07,NW,307,10.0,20.0,36,0.00,,---,0.02,VWS V14.01,2013-02-17 22:09:00,
2013-02-17 17:14:00,36.7,12.9,30.07,WNW,303,11.0,16.0,37,0.00,,---,0.02,VWS V14.01,2013-02-17 22:14:00,
2013-02-17 17:19:00,36.7,12.9,30.07,NW,315,12.0,16.0,37,0.00,,---,0.02,VWS V14.01,2013-02-17 22:19:00,
2013-02-17 17:24:00,36.7,13.5,30.08,WNW,301,9.0,17.0,38,0.00,,---,0.02,VWS V14.01,2013-02-17 22:24:00,
2013-02-17 17:29:00,36.6,12.8,30.08,WNW,296,9.0,15.0,37,0.00,,---,0.02,VWS V14.01,2013-02-17 22:29:00,
2013-02-17 17:34:00,36.6,12.8,30.08,NW,305,11.0,19.0,37,0.00,,---,0.02,VWS V14.01,2013-02-17 22:34:00,
2013-02-17 17:39:00,36.5,12.7,30.09,WNW,291,13.0,18.0,37,0.00,,---,0.02,VWS V14.01,2013-02-17 22:39:00,
2013-02-17 17:44:00,36.5,12.7,30.09,WNW,298,10.0,20.0,37,0.00,,---,0.02,VWS V14.01,2013-02-17 22:44:00,
2013-02-17 17:49:00,36.4,13.8,30.09,WNW,296,10.0,15.0,39,0.00,,---,0.02,VWS V14.01,2013-02-17 22:49:00,
2013-02-17 17:54:00,36.3,13.7,30.09,WNW,286,14.0,14.0,39,0.00,,---,0.02,VWS V14.01,2013-02-17 22:54:00,
2013-02-17 17:59:00,36.2,13.1,30.09,NW,305,9.0,13.0,38,0.00,,---,0.02,VWS V14.01,2013-02-17 22:59:00,
2013-02-17 18:04:00,36.1,13.0,30.09,WNW,290,3.0,12.0,38,0.00,,---,0.02,VWS V14.01,2013-02-17 23:04:00,
2013-02-17 18:09:00,35.9,12.8,30.10,WNW,297,5.0,11.0,38,0.00,,---,0.02,VWS V14.01,2013-02-17 23:09:00,
2013-02-17 18:14:00,35.8,13.9,30.10,WNW,299,10.0,11.0,40,0.00,,---,0.02,VWS V14.01,2013-02-17 23:14:00,
2013-02-17 18:19:00,35.8,13.9,30.10,WNW,298,6.0,10.0,40,0.00,,---,0.02,VWS V14.01,2013-02-17 23:19:00,
2013-02-17 18:24:00,35.7,13.8,30.11,NW,304,6.0,11.0,40,0.00,,---,0.02,VWS V14.01,2013-02-17 23:24:00,
2013-02-17 18:29:00,35.7,13.8,30.11,WNW,286,6.0,11.0,40,0.00,,---,0.02,VWS V14.01,2013-02-17 23:29:00,
2013-02-17 18:34:00,35.7,13.2,30.11,NW,304,4.0,12.0,39,0.00,,---,0.02,VWS V14.01,2013-02-17 23:34:00,
2013-02-17 18:39:00,35.7,13.8,30.12,WNW,294,1.0,12.0,40,0.00,,---,0.02,VWS V14.01,2013-02-17 23:39:00,
2013-02-17 18:44:00,35.5,14.1,30.12,WNW,296,4.0,6.0,41,0.00,,---,0.02,VWS V14.01,2013-02-17 23:44:00,
2013-02-17 18:49:00,35.4,14.1,30.12,WNW,294,10.0,10.0,41,0.00,,---,0.02,VWS V14.01,2013-02-17 23:49:00,
2013-02-17 18:54:00,35.5,14.7,30.12,WNW,289,7.0,10.0,42,0.00,,---,0.02,VWS V14.01,2013-02-17 23:54:00,
2013-02-17 18:59:00,35.5,14.1,30.12,WNW,296,7.0,11.0,41,0.00,,---,0.02,VWS V14.01,2013-02-17 23:59:00,
2013-02-17 19:04:00,35.4,14.6,30.12,WNW,299,3.0,11.0,42,0.00,,---,0.02,VWS V14.01,2013-02-18 00:04:00,
2013-02-17 19:09:00,35.3,15.1,30.13,WNW,295,3.0,9.0,43,0.00,,---,0.02,VWS V14.01,2013-02-18 00:09:00,
2013-02-17 19:14:00,35.2,15.0,30.13,WNW,297,6.0,10.0,43,0.00,,---,0.02,VWS V14.01,2013-02-18 00:14:00,
2013-02-17 19:19:00,35.2,15.5,30.13,WNW,288,2.0,10.0,44,0.00,,---,0.02,VWS V14.01,2013-02-18 00:19:00,
2013-02-17 19:24:00,35.0,15.8,30.13,WNW,289,2.0,5.0,45,0.00,,---,0.02,VWS V14.01,2013-02-18 00:24:00,
2013-02-17 19:29:00,35.0,16.3,30.13,WNW,290,7.0,7.0,46,0.00,,---,0.02,VWS V14.01,2013-02-18 00:29:00,
2013-02-17 19:34:00,34.9,15.7,30.13,WNW,293,5.0,6.0,45,0.00,,---,0.02,VWS V14.01,2013-02-18 00:34:00,
2013-02-17 19:39:00,34.8,15.6,30.14,WNW,294,8.0,8.0,45,0.00,,---,0.02,VWS V14.01,2013-02-18 00:39:00,
2013-02-17 19:44:00,34.8,15.6,30.14,WNW,299,6.0,6.0,45,0.00,,---,0.02,VWS V14.01,2013-02-18 00:44:00,
2013-02-17 19:49:00,34.7,15.6,30.14,WNW,296,2.0,5.0,45,0.00,,---,0.02,VWS V14.01,2013-02-18 00:49:00,
2013-02-17 19:54:00,34.6,16.0,30.15,WNW,293,4.0,6.0,46,0.00,,---,0.02,VWS V14.01,2013-02-18 00:54:00,
2013-02-17 19:59:00,34.6,16.0,30.15,WNW,290,1.0,6.0,46,0.00,,---,0.02,VWS V14.01,2013-02-18 00:59:00,
2013-02-17 20:04:00,34.6,16.5,30.15,WNW,290,1.0,3.0,47,0.00,,---,0.02,VWS V14.01,2013-02-18 01:04:00,
2013-02-17 20:09:00,34.4,16.8,30.15,WNW,290,1.0,2.0,48,0.00,,---,0.02,VWS V14.01,2013-02-18 01:09:00,
2013-02-17 20:14:00,34.4,16.8,30.15,WNW,290,1.0,5.0,48,0.00,,---,0.02,VWS V14.01,2013-02-18 01:14:00,
2013-02-17 20:19:00,34.3,17.1,30.15,WNW,290,2.0,3.0,49,0.00,,---,0.02,VWS V14.01,2013-02-18 01:19:00,
2013-02-17 20:24:00,34.3,17.1,30.16,WNW,290,0.0,2.0,49,0.00,,---,0.02,VWS V14.01,2013-02-18 01:24:00,
2013-02-17 20:29:00,34.2,16.6,30.16,WNW,290,0.0,0.0,48,0.00,,---,0.02,VWS V14.01,2013-02-18 01:29:00,
2013-02-17 20:34:00,34.2,16.6,30.16,WNW,290,0.0,0.0,48,0.00,,---,0.02,VWS V14.01,2013-02-18 01:34:00,
2013-02-17 20:39:00,34.2,16.6,30.16,WNW,290,0.0,0.0,48,0.00,,---,0.02,VWS V14.01,2013-02-18 01:39:00,
2013-02-17 20:44:00,34.3,16.7,30.16,WNW,292,3.0,6.0,48,0.00,,---,0.02,VWS V14.01,2013-02-18 01:44:00,
2013-02-17 20:49:00,34.4,16.8,30.16,WNW,292,2.0,4.0,48,0.00,,---,0.02,VWS V14.01,2013-02-18 01:49:00,
2013-02-17 20:54:00,34.5,17.3,30.17,WNW,292,5.0,6.0,49,0.00,,---,0.02,VWS V14.01,2013-02-18 01:54:00,
2013-02-17 20:59:00,34.5,17.3,30.17,WNW,292,2.0,4.0,49,0.00,,---,0.02,VWS V14.01,2013-02-18 01:59:00,
2013-02-17 21:04:00,34.5,17.3,30.17,WNW,292,3.0,5.0,49,0.00,,---,0.02,VWS V14.01,2013-02-18 02:04:00,
2013-02-17 21:09:00,34.5,17.8,30.18,WNW,292,2.0,4.0,50,0.00,,---,0.02,VWS V14.01,2013-02-18 02:09:00,
2013-02-17 21:14:00,34.4,17.2,30.18,WNW,294,4.0,7.0,49,0.00,,---,0.02,VWS V14.01,2013-02-18 02:14:00,
2013-02-17 21:19:00,34.6,17.4,30.18,WNW,297,4.0,5.0,49,0.00,,---,0.02,VWS V14.01,2013-02-18 02:19:00,
2013-02-17 21:24:00,34.6,17.4,30.19,WNW,298,2.0,6.0,49,0.00,,---,0.02,VWS V14.01,2013-02-18 02:24:00,
2013-02-17 21:29:00,34.6,17.4,30.19,WNW,292,2.0,6.0,49,0.00,,---,0.02,VWS V14.01,2013-02-18 02:29:00,
2013-02-17 21:34:00,34.6,17.4,30.19,WNW,292,2.0,4.0,49,0.00,,---,0.02,VWS V14.01,2013-02-18 02:34:00,
2013-02-17 21:39:00,34.5,17.3,30.19,WNW,292,5.0,5.0,49,0.00,,---,0.02,VWS V14.01,2013-02-18 02:39:00,
2013-02-17 21:44:00,34.6,17.4,30.19,WNW,290,4.0,6.0,49,0.00,,---,0.02,VWS V14.01,2013-02-18 02:44:00,
2013-02-17 21:49:00,34.5,17.3,30.19,WNW,290,4.0,5.0,49,0.00,,---,0.02,VWS V14.01,2013-02-18 02:49:00,
2013-02-17 21:54:00,34.6,17.4,30.20,WNW,290,2.0,6.0,49,0.00,,---,0.02,VWS V14.01,2013-02-18 02:54:00,
2013-02-17 21:59:00,34.5,17.8,30.20,WNW,290,2.0,4.0,50,0.00,,---,0.02,VWS V14.01,2013-02-18 02:59:00,
2013-02-17 22:04:00,34.5,17.8,30.20,WNW,290,3.0,5.0,50,0.00,,---,0.02,VWS V14.01,2013-02-18 03:04:00,
2013-02-17 22:09:00,34.6,17.9,30.21,WNW,290,3.0,5.0,50,0.00,,---,0.02,VWS V14.01,2013-02-18 03:09:00,
2013-02-17 22:14:00,34.8,17.6,30.21,WNW,292,5.0,7.0,49,0.00,,---,0.02,VWS V14.01,2013-02-18 03:14:00,
2013-02-17 22:19:00,34.8,18.1,30.21,WNW,292,3.0,5.0,50,0.00,,---,0.02,VWS V14.01,2013-02-18 03:19:00,
2013-02-17 22:24:00,34.8,18.5,30.21,WNW,292,4.0,6.0,51,0.00,,---,0.02,VWS V14.01,2013-02-18 03:24:00,
2013-02-17 22:29:00,34.8,18.5,30.21,WNW,292,3.0,6.0,51,0.00,,---,0.02,VWS V14.01,2013-02-18 03:29:00,
2013-02-17 22:34:00,34.6,18.3,30.21,WNW,292,4.0,5.0,51,0.00,,---,0.02,VWS V14.01,2013-02-18 03:34:00,
2013-02-17 22:39:00,34.7,18.4,30.21,WNW,289,6.0,9.0,51,0.00,,---,0.02,VWS V14.01,2013-02-18 03:39:00,
2013-02-17 22:44:00,34.6,18.3,30.21,WNW,287,3.0,6.0,51,0.00,,---,0.02,VWS V14.01,2013-02-18 03:44:00,
2013-02-17 22:49:00,34.6,18.3,30.21,WNW,287,3.0,6.0,51,0.00,,---,0.02,VWS V14.01,2013-02-18 03:49:00,
2013-02-17 22:54:00,34.6,17.9,30.22,WNW,283,4.0,5.0,50,0.00,,---,0.02,VWS V14.01,2013-02-18 03:54:00,
2013-02-17 22:59:00,34.8,17.1,30.22,West,281,7.0,8.0,48,0.00,,---,0.02,VWS V14.01,2013-02-18 03:59:00,
2013-02-17 23:04:00,35.2,16.5,30.22,West,279,4.0,9.0,46,0.00,,---,0.02,VWS V14.01,2013-02-18 04:04:00,
2013-02-17 23:09:00,35.3,16.1,30.22,West,279,7.0,11.0,45,0.00,,---,0.02,VWS V14.01,2013-02-18 04:09:00,
2013-02-17 23:14:00,35.4,15.7,30.22,West,275,10.0,10.0,44,0.00,,---,0.02,VWS V14.01,2013-02-18 04:14:00,
2013-02-17 23:19:00,35.3,17.6,30.22,West,279,5.0,11.0,48,0.00,,---,0.02,VWS V14.01,2013-02-18 04:19:00,
2013-02-17 23:24:00,35.3,18.1,30.22,West,281,4.0,10.0,49,0.00,,---,0.02,VWS V14.01,2013-02-18 04:24:00,
2013-02-17 23:29:00,35.0,17.8,30.22,West,271,4.0,10.0,49,0.00,,---,0.02,VWS V14.01,2013-02-18 04:29:00,
2013-02-17 23:34:00,35.0,16.8,30.22,WNW,292,6.0,8.0,47,0.00,,---,0.02,VWS V14.01,2013-02-18 04:34:00,
2013-02-17 23:39:00,35.1,16.9,30.23,WNW,288,3.0,5.0,47,0.00,,---,0.02,VWS V14.01,2013-02-18 04:39:00,
2013-02-17 23:44:00,35.3,16.6,30.23,WNW,292,5.0,7.0,46,0.00,,---,0.02,VWS V14.01,2013-02-18 04:44:00,
2013-02-17 23:49:00,35.4,17.2,30.23,NW,304,3.0,6.0,47,0.00,,---,0.02,VWS V14.01,2013-02-18 04:49:00,
2013-02-17 23:54:00,35.1,17.4,30.24,NW,317,4.0,7.0,48,0.00,,---,0.02,VWS V14.01,2013-02-18 04:54:00,
2013-02-17 23:59:00,34.6,17.9,30.24,NW,318,2.0,6.0,50,0.00,,---,0.02,VWS V14.01,2013-02-18 04:59:00,